Time;durP1;ratioP1;P1;durP2;ratioP2;P2;SDS_P1;SDS_P2;PMS_P1;PMS_P2;Temp;Humidity;BMP_temperature;BMP_pressure;BME280_temperature;BME280_humidity;BME280_pressure;Samples;Min_cycle;Max_cycle;Signal;HPM_P1;HPM_P2
2021/12/27 00:04:34;;;;;;;134.85;36.55;;;;;;;8.75;100.00;98013.44;5154661;27;20479;-95
2021/12/27 00:06:59;;;;;;;108.38;33.83;;;;;;;8.69;100.00;98016.28;5155402;27;20039;-93
2021/12/27 00:09:26;;;;;;;108.65;33.55;;;;;;;8.70;100.00;98019.84;5137543;27;20042;-94
2021/12/27 00:11:52;;;;;;;71.75;31.92;;;;;;;8.56;100.00;97996.41;5145697;27;20047;-93
2021/12/27 00:14:18;;;;;;;62.22;30.58;;;;;;;8.74;100.00;98021.44;5148651;27;20036;-94
2021/12/27 00:20:09;;;;;;;51.13;30.30;;;;;;;8.81;100.00;98031.81;5143800;27;20169;-95
2021/12/27 00:22:34;;;;;;;;;;;;;;;8.84;100.00;98036.16;5154416;27;20106;-92
2021/12/27 00:25:00;;;;;;;61.22;31.15;;;;;;;8.66;100.00;98005.81;5143430;27;19954;-94
2021/12/27 00:27:26;;;;;;;52.00;30.17;;;;;;;8.70;100.00;98006.59;5144313;27;20054;-92
2021/12/27 00:29:52;;;;;;;57.58;30.33;;;;;;;8.79;100.00;98028.34;5137720;27;20766;-94
2021/12/27 00:35:46;;;;;;;53.58;29.58;;;;;;;8.79;100.00;98025.69;5151435;27;20078;-93
2021/12/27 00:38:12;;;;;;;57.57;33.00;;;;;;;8.76;100.00;98011.66;5159431;27;20071;-95
2021/12/27 00:40:37;;;;;;;68.47;31.98;;;;;;;8.75;100.00;98010.81;5153194;27;20689;-93
2021/12/27 00:43:03;;;;;;;54.80;30.70;;;;;;;8.77;100.00;98019.56;5154078;27;20047;-94
2021/12/27 00:49:31;;;;;;;88.25;31.95;;;;;;;8.83;100.00;98035.28;5144311;27;20026;-92
2021/12/27 00:51:58;;;;;;;119.63;34.17;;;;;;;8.75;100.00;98025.84;5142099;27;20026;-94
2021/12/27 00:54:24;;;;;;;107.55;32.65;;;;;;;8.56;100.00;98005.22;5144973;27;20124;-94
2021/12/27 00:56:50;;;;;;;89.75;32.45;;;;;;;8.63;100.00;98020.03;5143744;27;20493;-95
2021/12/27 00:59:16;;;;;;;116.35;35.10;;;;;;;8.63;100.00;98009.41;5143810;27;20039;-96
2021/12/27 01:08:26;;;;;;;125.45;33.88;;;;;;;8.68;100.00;98027.81;5140331;27;20392;-95
2021/12/27 01:13:45;;;;;;;133.88;36.10;;;;;;;8.58;100.00;98024.56;5108071;27;20385;-93
2021/12/27 01:19:45;;;;;;;93.80;32.72;;;;;;;8.53;100.00;98030.94;5092713;28;20044;-94
2021/12/27 01:22:11;;;;;;;127.38;34.38;;;;;;;8.57;100.00;98035.25;5094170;28;20036;-93
2021/12/27 01:24:37;;;;;;;131.45;33.05;;;;;;;8.45;100.00;98017.06;5100295;28;20134;-94
2021/12/27 01:27:03;;;;;;;98.82;31.08;;;;;;;8.43;100.00;98006.50;5093143;28;20075;-93
2021/12/27 01:29:30;;;;;;;93.18;32.00;;;;;;;8.55;100.00;98023.81;5093570;28;20044;-93
2021/12/27 01:35:20;;;;;;;149.60;31.55;;;;;;;8.50;100.00;98021.31;5071558;28;20032;-94
2021/12/27 01:37:46;;;;;;;238.88;33.58;;;;;;;8.58;100.00;98037.81;5091724;28;20040;-94
2021/12/27 01:40:14;;;;;;;167.02;33.92;;;;;;;8.50;100.00;98026.63;5093214;28;20040;-94
2021/12/27 01:43:06;;;;;;;168.27;31.55;;;;;;;8.48;100.00;98028.44;5093167;28;20044;-93
2021/12/27 01:49:30;;;;;;;121.03;31.02;;;;;;;8.57;100.00;98044.06;5090259;28;20024;-93
2021/12/27 01:51:58;;;;;;;151.63;32.10;;;;;;;8.49;100.00;98024.88;5091257;28;20028;-92
2021/12/27 01:54:24;;;;;;;77.10;28.15;;;;;;;8.52;100.00;98045.09;5091328;28;20048;-94
2021/12/27 01:56:51;;;;;;;61.88;29.17;;;;;;;8.32;100.00;98028.00;5091049;28;20119;-95
2021/12/27 01:59:17;;;;;;;56.78;27.98;;;;;;;8.46;100.00;98045.28;5091428;28;20032;-94
2021/12/27 02:05:05;;;;;;;48.03;23.10;;;;;;;8.38;100.00;98041.06;5091614;28;20466;-92
2021/12/27 02:07:32;;;;;;;40.95;23.08;;;;;;;8.30;100.00;98029.81;5097879;28;20054;-94
2021/12/27 02:10:02;;;;;;;40.70;22.98;;;;;;;8.32;100.00;98038.59;5090848;28;20498;-94
2021/12/27 02:12:28;;;;;;;41.17;23.15;;;;;;;8.43;100.00;98055.06;5090684;28;20055;-93
2021/12/27 02:14:55;;;;;;;44.28;23.88;;;;;;;8.36;100.00;98047.31;5090914;28;20052;-96
2021/12/27 02:20:43;;;;;;;41.85;22.83;;;;;;;8.39;100.00;98032.22;5084144;28;20482;-94
2021/12/27 02:23:15;;;;;;;48.53;23.73;;;;;;;8.42;100.00;98042.75;5087222;28;20067;-94
2021/12/27 02:25:42;;;;;;;47.05;22.92;;;;;;;8.40;100.00;98031.31;5077171;28;20052;-94
2021/12/27 02:28:10;;;;;;;51.50;24.15;;;;;;;8.40;100.00;98049.88;5077296;28;20044;-94
2021/12/27 02:37:29;;;;;;;37.88;20.23;;;;;;;8.15;100.00;98054.09;5077527;28;20032;-94
2021/12/27 02:39:55;;;;;;;41.08;21.15;;;;;;;8.05;100.00;98050.00;5079244;28;20044;-94
2021/12/27 02:42:21;;;;;;;41.88;22.23;;;;;;;8.03;100.00;98050.03;5078934;28;20124;-92
2021/12/27 02:44:47;;;;;;;48.33;24.33;;;;;;;8.02;100.00;98061.53;5079155;28;20064;-94
2021/12/27 02:50:36;;;;;;;33.85;19.23;;;;;;;7.97;100.00;98063.44;5077790;28;20036;-93
2021/12/27 02:53:04;;;;;;;32.78;18.45;;;;;;;7.93;100.00;98062.66;5076678;28;20414;-94
2021/12/27 02:55:30;;;;;;;31.30;17.40;;;;;;;8.00;100.00;98077.47;5077213;28;20131;-94
2021/12/27 02:57:57;;;;;;;30.95;17.35;;;;;;;7.95;100.00;98063.47;5076797;28;20040;-94
2021/12/27 03:04:37;;;;;;;28.55;16.00;;;;;;;8.19;100.00;98075.16;5075827;28;20040;-93
2021/12/27 03:07:03;;;;;;;28.00;15.82;;;;;;;8.06;100.00;98055.22;5068361;28;20009;-94
2021/12/27 03:09:31;;;;;;;27.35;15.90;;;;;;;8.07;100.00;98058.75;5078349;28;20052;-94
2021/12/27 03:11:56;;;;;;;27.27;15.93;;;;;;;8.05;100.00;98079.13;5076601;28;20047;-92
2021/12/27 03:14:23;;;;;;;26.60;15.60;;;;;;;7.97;100.00;98066.09;5078291;28;20098;-94
2021/12/27 03:20:12;;;;;;;26.42;15.43;;;;;;;8.03;100.00;98074.72;5076315;28;20029;-94
2021/12/27 03:22:40;;;;;;;25.77;15.80;;;;;;;8.10;100.00;98079.84;5076581;28;20040;-94
2021/12/27 03:25:09;;;;;;;26.42;15.35;;;;;;;8.08;100.00;98056.06;5076260;28;20040;-93
2021/12/27 03:27:35;;;;;;;28.25;16.73;;;;;;;8.14;100.00;98052.38;5076251;28;20131;-94
2021/12/27 03:40:11;;;;;;;27.55;16.52;;;;;;;8.16;100.00;98053.22;5075759;28;20103;-94
2021/12/27 03:42:38;;;;;;;36.47;18.88;;;;;;;8.21;100.00;98062.75;5076014;28;20044;-94
2021/12/27 03:51:47;;;;;;;38.42;21.17;;;;;;;8.23;100.00;98033.56;5074744;28;20032;-94
2021/12/27 03:54:13;;;;;;;39.92;22.60;;;;;;;8.31;100.00;98049.25;5075602;28;20044;-95
2021/12/27 03:56:40;;;;;;;41.85;22.63;;;;;;;8.27;100.00;98037.88;5075591;28;20097;-95
2021/12/27 04:06:02;;;;;;;76.25;23.83;;;;;;;8.28;100.00;98047.53;5092054;28;20044;-93
2021/12/27 04:08:28;;;;;;;182.10;26.38;;;;;;;8.33;100.00;98058.88;5106151;28;20073;-93
2021/12/27 04:10:55;;;;;;;79.20;22.52;;;;;;;8.26;100.00;98030.81;5112136;28;20044;-94
2021/12/27 04:13:22;;;;;;;142.93;25.05;;;;;;;8.25;100.00;98031.75;5112109;28;20051;-93
2021/12/27 04:19:31;;;;;;;148.13;24.58;;;;;;;8.41;100.00;98061.31;5112364;28;20496;-93
2021/12/27 04:21:58;;;;;;;145.57;25.48;;;;;;;8.40;100.00;98064.88;5111946;28;20497;-94
2021/12/27 04:24:24;;;;;;;98.50;23.02;;;;;;;8.25;100.00;98041.47;5112148;28;20054;-94
2021/12/27 04:26:50;;;;;;;80.70;21.63;;;;;;;8.32;100.00;98050.97;5112098;28;20122;-93
2021/12/27 04:29:16;;;;;;;72.30;21.90;;;;;;;8.25;100.00;98063.53;5111845;28;20047;-93
2021/12/27 04:35:04;;;;;;;45.20;19.70;;;;;;;8.26;100.00;98075.84;5107403;28;20028;-93
2021/12/27 04:37:32;;;;;;;35.55;20.00;;;;;;;8.22;100.00;98072.44;5111881;28;20060;-94
2021/12/27 04:39:58;;;;;;;36.25;19.33;;;;;;;8.17;100.00;98058.44;5111649;28;20054;-94
2021/12/27 04:42:26;;;;;;;35.83;19.15;;;;;;;8.14;100.00;98057.69;5111476;28;20040;-94
2021/12/27 04:44:52;;;;;;;32.83;18.52;;;;;;;8.24;100.00;98067.09;5111855;28;20058;-93
2021/12/27 04:50:39;;;;;;;29.98;16.95;;;;;;;8.18;100.00;98054.91;5111566;28;20031;-94
2021/12/27 04:53:07;;;;;;;30.75;16.85;;;;;;;8.26;100.00;98043.19;5111249;28;21486;-93
2021/12/27 04:55:34;;;;;;;29.58;17.35;;;;;;;8.26;100.00;98059.94;5110912;28;20047;-92
2021/12/27 04:58:00;;;;;;;31.70;17.02;;;;;;;8.17;100.00;98052.28;5111120;28;20409;-92
2021/12/27 05:04:31;;;;;;;32.92;17.77;;;;;;;8.36;100.00;98055.28;5110940;28;20054;-93
2021/12/27 05:06:56;;;;;;;;;;;;;;;8.31;100.00;98063.34;5108111;28;20507;-91
2021/12/27 05:09:24;;;;;;;32.45;18.77;;;;;;;8.21;100.00;98051.28;5110825;28;20014;-92
2021/12/27 05:11:50;;;;;;;38.97;20.70;;;;;;;8.19;100.00;98061.06;5105880;28;20047;-93
2021/12/27 05:14:16;;;;;;;41.78;22.08;;;;;;;8.12;100.00;98060.38;5097322;28;20052;-93
2021/12/27 05:23:43;;;;;;;37.67;19.30;;;;;;;8.10;100.00;98050.72;5092683;28;20047;-93
2021/12/27 05:26:10;;;;;;;48.03;21.50;;;;;;;8.12;100.00;98051.56;5097632;28;20123;-94
2021/12/27 05:28:36;;;;;;;45.40;22.00;;;;;;;8.14;100.00;98058.53;5097666;28;20151;-92
2021/12/27 05:34:32;;;;;;;36.95;19.60;;;;;;;8.12;100.00;98059.50;5096899;28;20085;-95
2021/12/27 05:36:58;;;;;;;39.25;21.00;;;;;;;8.11;100.00;98063.03;5108284;28;20047;-92
2021/12/27 05:39:24;;;;;;;39.03;21.05;;;;;;;8.17;100.00;98073.47;5096696;28;20458;-92
2021/12/27 05:41:52;;;;;;;33.10;18.23;;;;;;;8.19;100.00;98084.88;5097090;28;20390;-95
2021/12/27 05:44:18;;;;;;;32.30;17.35;;;;;;;8.16;100.00;98074.41;5096830;28;20149;-93
2021/12/27 05:53:57;;;;;;;30.75;18.00;;;;;;;8.38;100.00;98106.44;5099184;28;20073;-91
2021/12/27 05:56:23;;;;;;;30.10;17.90;;;;;;;8.28;100.00;98099.66;5095271;28;20197;-90
2021/12/27 05:58:51;;;;;;;29.30;17.50;;;;;;;8.32;100.00;98118.06;5096708;28;20068;-90
2021/12/27 06:04:38;;;;;;;28.63;16.08;;;;;;;8.31;100.00;98100.44;5097695;28;20032;-91
2021/12/27 06:07:04;;;;;;;33.13;18.42;;;;;;;8.38;100.00;98119.69;5096593;28;20092;-93
2021/12/27 06:09:30;;;;;;;26.80;16.30;;;;;;;8.22;100.00;98090.13;5096035;28;20109;-93
2021/12/27 06:11:56;;;;;;;26.67;15.80;;;;;;;8.38;100.00;98120.53;5096087;28;20118;-92
2021/12/27 06:14:23;;;;;;;24.20;15.55;;;;;;;8.36;100.00;98105.59;5096912;28;20071;-93
2021/12/27 06:20:14;;;;;;;24.75;14.35;;;;;;;8.35;100.00;98110.03;5093875;28;20501;-92
2021/12/27 06:22:42;;;;;;;25.02;13.25;;;;;;;8.38;100.00;98107.28;5091891;28;20052;-94
2021/12/27 06:25:08;;;;;;;21.48;13.25;;;;;;;8.35;100.00;98106.50;5088068;28;20398;-92
2021/12/27 06:27:35;;;;;;;21.33;13.52;;;;;;;8.43;100.00;98123.94;5095684;28;20037;-93
2021/12/27 06:36:42;;;;;;;33.85;18.92;;;;;;;8.42;100.00;98118.72;5041288;28;20446;-93
2021/12/27 06:39:08;;;;;;;43.83;24.40;;;;;;;8.35;100.00;98110.03;5043487;28;20037;-93
2021/12/27 06:41:34;;;;;;;27.27;15.25;;;;;;;8.43;100.00;98125.72;5048653;28;20099;-92
2021/12/27 06:44:00;;;;;;;27.92;16.33;;;;;;;8.28;100.00;98121.69;5046808;28;20141;-92
2021/12/27 07:00:06;;;;;;;22.75;14.00;;;;;;;8.34;100.00;98137.44;5044702;28;20025;-90
2021/12/27 07:02:32;;;;;;;;;;;;;;;8.35;100.00;98152.44;5027842;28;20048;-91
2021/12/27 07:04:58;;;;;;;18.75;11.10;;;;;;;8.30;100.00;98141.06;5059643;28;19916;-94
2021/12/27 07:07:24;;;;;;;19.50;12.32;;;;;;;8.26;100.00;98135.91;5056852;28;20071;-93
2021/12/27 07:09:50;;;;;;;18.42;11.15;;;;;;;8.35;100.00;98155.06;5064857;28;20203;-93
2021/12/27 07:12:16;;;;;;;19.65;12.20;;;;;;;8.33;100.00;98151.59;5057302;28;20053;-91
2021/12/27 07:14:42;;;;;;;19.63;12.02;;;;;;;8.34;100.00;98155.97;5056392;28;20075;-92
2021/12/27 07:20:51;;;;;;;24.38;14.90;;;;;;;8.48;100.00;98168.00;5051556;28;20111;-91
2021/12/27 07:23:18;;;;;;;20.38;12.15;;;;;;;8.56;100.00;98173.94;5055944;28;20041;-93
2021/12/27 07:25:44;;;;;;;22.05;13.23;;;;;;;8.51;100.00;98162.63;5056765;28;20037;-92
2021/12/27 07:28:10;;;;;;;21.63;12.90;;;;;;;8.47;100.00;98160.97;5056104;28;20047;-92
2021/12/27 07:34:34;;;;;;;21.48;13.75;;;;;;;8.63;100.00;98178.16;5057513;28;20111;-94
2021/12/27 07:37:02;;;;;;;19.55;12.35;;;;;;;8.56;100.00;98158.03;5055163;28;20103;-91
2021/12/27 07:39:28;;;;;;;20.20;13.27;;;;;;;8.67;100.00;98176.28;5054450;28;20045;-92
2021/12/27 07:41:54;;;;;;;20.13;12.80;;;;;;;8.63;100.00;98171.09;5050717;28;20037;-92
2021/12/27 07:44:20;;;;;;;20.17;12.85;;;;;;;8.60;100.00;98165.88;5055385;28;20037;-92
2021/12/27 07:50:08;;;;;;;26.10;14.85;;;;;;;8.65;100.00;98168.38;5055342;28;20021;-91
2021/12/27 07:52:36;;;;;;;22.95;15.02;;;;;;;8.74;100.00;98184.03;5055483;28;20071;-93
2021/12/27 07:55:02;;;;;;;22.60;14.55;;;;;;;8.70;100.00;98170.91;5055830;28;20137;-92
2021/12/27 07:57:28;;;;;;;21.17;14.02;;;;;;;8.83;100.00;98188.19;5055984;28;20132;-94
2021/12/27 07:59:54;;;;;;;22.70;14.13;;;;;;;8.72;100.00;98167.31;5056975;28;20049;-92
2021/12/27 08:05:55;;;;;;;21.60;13.18;;;;;;;8.91;100.00;98164.94;5082370;28;20036;-95
2021/12/27 08:08:22;;;;;;;20.20;13.13;;;;;;;8.91;100.00;98151.69;5094719;28;20523;-91
2021/12/27 08:10:48;;;;;;;20.40;12.32;;;;;;;9.02;100.00;98172.59;5094259;28;20497;-94
2021/12/27 08:13:14;;;;;;;19.85;13.55;;;;;;;8.94;100.00;98154.28;5097139;28;20044;-92
2021/12/27 08:19:48;;;;;;;19.88;12.27;;;;;;;9.16;100.00;98183.66;5097461;27;20429;-92
2021/12/27 08:22:14;;;;;;;19.42;12.02;;;;;;;9.09;100.00;98171.50;5089807;28;20028;-93
2021/12/27 08:24:41;;;;;;;17.40;12.35;;;;;;;9.00;100.00;98147.91;5095737;28;20074;-92
2021/12/27 08:27:07;;;;;;;19.77;13.05;;;;;;;9.19;100.00;98180.91;5093909;28;20075;-92
2021/12/27 08:29:33;;;;;;;20.95;13.35;;;;;;;9.14;100.00;98172.22;5095175;28;20449;-91
2021/12/27 08:42:08;;;;;;;21.65;14.60;;;;;;;9.18;100.00;98189.78;5094818;28;20118;-92
2021/12/27 08:44:34;;;;;;;29.50;18.40;;;;;;;9.20;100.00;98200.34;5096633;28;20484;-92
2021/12/27 08:50:22;;;;;;;33.00;21.20;;;;;;;9.10;100.00;98188.28;5100441;28;20031;-91
2021/12/27 08:52:50;;;;;;;40.85;23.95;;;;;;;9.10;100.00;98207.72;5102281;28;20375;-90
2021/12/27 08:55:16;;;;;;;41.35;25.35;;;;;;;9.07;100.00;98193.69;5100467;28;20048;-91
2021/12/27 08:57:44;;;;;;;50.58;28.98;;;;;;;9.07;100.00;98188.38;5101182;28;20076;-89
2021/12/27 09:03:32;;;;;;;35.20;20.73;;;;;;;9.00;100.00;98185.91;5099542;28;20043;-92
2021/12/27 09:05:58;;;;;;;40.90;24.13;;;;;;;9.03;100.00;98190.25;5102692;28;20371;-92
2021/12/27 09:08:28;;;;;;;43.67;24.10;;;;;;;9.13;100.00;98199.69;5106879;28;20073;-93
2021/12/27 09:10:58;;;;;;;48.30;27.92;;;;;;;9.09;100.00;98179.47;5099451;28;20153;-90
2021/12/27 09:13:28;;;;;;;42.97;25.23;;;;;;;9.07;100.00;98189.25;5104556;28;20040;-92
2021/12/27 09:20:08;;;;;;;51.30;30.13;;;;;;;9.36;100.00;98204.25;5098034;28;20024;-94
2021/12/27 09:22:36;;;;;;;53.92;30.50;;;;;;;9.28;100.00;98190.34;5098955;28;20493;-92
2021/12/27 09:25:02;;;;;;;37.65;22.55;;;;;;;9.22;100.00;98183.47;5106932;28;20028;-92
2021/12/27 09:27:28;;;;;;;37.70;24.50;;;;;;;9.20;100.00;98185.31;5101304;28;20563;-94
2021/12/27 09:29:56;;;;;;;35.80;21.88;;;;;;;9.38;100.00;98209.53;5100079;28;20479;-92
2021/12/27 09:52:33;;;;;;;30.98;18.50;;;;;;;9.77;100.00;98198.53;5101177;28;20067;-94
2021/12/27 09:55:00;;;;;;;27.83;18.45;;;;;;;9.82;100.00;98205.44;5103871;28;20046;-94
2021/12/27 09:57:26;;;;;;;27.80;18.10;;;;;;;9.72;100.00;98190.72;5103263;28;20038;-93
2021/12/27 09:59:52;;;;;;;29.30;19.95;;;;;;;9.82;100.00;98204.56;5103541;28;20111;-94
2021/12/27 10:05:54;;;;;;;29.45;20.15;;;;;;;9.93;100.00;98210.41;5095784;28;20040;-90
2021/12/27 10:08:21;;;;;;;26.23;17.30;;;;;;;9.78;100.00;98194.97;5097650;28;20047;-94
2021/12/27 10:10:47;;;;;;;26.08;17.38;;;;;;;9.75;100.00;98205.69;5098305;28;20047;-93
2021/12/27 10:13:13;;;;;;;30.77;19.38;;;;;;;9.59;100.00;98197.38;5103737;28;20044;-93
2021/12/27 10:19:44;;;;;;;32.88;19.85;;;;;;;9.84;100.00;98221.31;5093490;28;20031;-93
2021/12/27 10:22:10;;;;;;;;;;;;;;;9.94;100.00;98222.75;5098306;28;20116;-92
2021/12/27 10:24:38;;;;;;;31.98;21.48;;;;;;;10.02;100.00;98204.78;5097500;28;19924;-94
2021/12/27 10:27:05;;;;;;;31.55;22.38;;;;;;;10.04;100.00;98183.44;5098012;27;20036;-93
2021/12/27 10:29:34;;;;;;;43.33;26.35;;;;;;;10.16;100.00;98182.19;5096455;28;20097;-93
2021/12/27 10:35:39;;;;;;;35.47;22.42;;;;;;;10.53;100.00;98175.59;5096857;28;20035;-92
2021/12/27 10:38:16;;;;;;;26.80;18.65;;;;;;;10.53;100.00;98173.78;5088499;28;20036;-93
2021/12/27 10:40:51;;;;;;;29.77;19.58;;;;;;;10.63;100.00;98184.97;5098173;28;20048;-93
2021/12/27 10:43:19;;;;;;;30.63;19.35;;;;;;;10.77;100.00;98187.97;5098978;28;20524;-95
2021/12/27 10:49:44;;;;;;;24.30;17.58;;;;;;;10.95;100.00;98198.84;5095561;28;20470;-94
2021/12/27 10:52:10;;;;;;;30.00;19.23;;;;;;;11.05;100.00;98193.13;5093328;28;20032;-96
2021/12/27 10:54:37;;;;;;;27.77;19.33;;;;;;;11.01;100.00;98164.88;5092974;28;20117;-94
2021/12/27 10:57:05;;;;;;;24.80;16.95;;;;;;;11.19;100.00;98170.41;5098032;28;20043;-95
2021/12/27 10:59:31;;;;;;;25.10;17.13;;;;;;;11.34;100.00;98179.59;5098363;28;20060;-94
2021/12/27 11:05:23;;;;;;;22.75;15.27;;;;;;;11.56;97.24;98167.19;5105301;28;20040;-92
2021/12/27 11:07:49;;;;;;;21.23;13.88;;;;;;;11.56;98.34;98156.53;5099131;28;20603;-94
2021/12/27 11:10:15;;;;;;;23.30;15.05;;;;;;;11.62;97.76;98163.38;5099067;28;20040;-95
2021/12/27 11:12:43;;;;;;;18.25;12.30;;;;;;;11.61;98.92;98154.53;5099344;28;20401;-92
2021/12/27 11:21:59;;;;;;;22.42;13.20;;;;;;;11.81;96.71;98155.50;5094090;28;20060;-93
2021/12/27 11:24:25;;;;;;;21.60;12.55;;;;;;;11.91;97.37;98152.41;5097650;28;20052;-94
2021/12/27 11:26:55;;;;;;;19.58;12.82;;;;;;;12.02;96.92;98149.31;5092582;28;20056;-94
2021/12/27 11:29:23;;;;;;;18.63;12.90;;;;;;;12.00;96.48;98131.66;5098095;28;20040;-95
2021/12/27 11:38:34;;;;;;;21.83;13.77;;;;;;;12.12;95.56;98137.31;5098649;28;20028;-93
2021/12/27 11:41:01;;;;;;;18.17;12.48;;;;;;;12.16;94.57;98129.19;5098865;28;20026;-93
2021/12/27 11:43:48;;;;;;;18.50;13.27;;;;;;;12.41;96.48;98139.63;5099644;28;20036;-93
2021/12/27 11:56:44;;;;;;;17.80;12.40;;;;;;;12.44;94.01;98119.00;5101092;28;20028;-93
2021/12/27 11:59:29;;;;;;;18.83;12.57;;;;;;;12.39;96.31;98121.03;5102938;28;20042;-93
2021/12/27 12:05:35;;;;;;;19.98;13.02;;;;;;;12.26;96.24;98098.53;5104110;28;20401;-92
2021/12/27 12:08:02;;;;;;;19.50;13.57;;;;;;;12.38;96.91;98116.63;5101618;28;20127;-93
2021/12/27 12:10:30;;;;;;;28.38;18.00;;;;;;;12.41;96.44;98112.97;5102730;28;20040;-93
2021/12/27 12:13:18;;;;;;;24.33;15.95;;;;;;;12.50;96.81;98118.75;5101441;28;20122;-93
2021/12/27 12:19:41;;;;;;;23.52;15.20;;;;;;;12.86;96.66;98104.66;5097905;28;20423;-93
2021/12/27 12:22:35;;;;;;;21.45;14.50;;;;;;;12.80;96.23;98083.59;5097665;28;20055;-93
2021/12/27 12:25:12;;;;;;;22.05;14.25;;;;;;;12.80;93.91;98085.41;5098493;28;20044;-93
2021/12/27 12:27:50;;;;;;;22.33;14.75;;;;;;;12.80;95.09;98080.06;5099011;28;20123;-93
2021/12/27 12:37:04;;;;;;;22.30;14.63;;;;;;;12.51;95.56;98075.16;5099878;28;20043;-94
2021/12/27 12:39:43;;;;;;;25.05;15.80;;;;;;;12.42;96.85;98088.03;5099581;28;20474;-95
2021/12/27 12:42:11;;;;;;;25.83;16.40;;;;;;;12.13;97.20;98048.41;5098336;28;20032;-93
2021/12/27 12:44:49;;;;;;;21.90;15.48;;;;;;;12.17;98.15;98056.28;5099848;28;20064;-95
2021/12/27 12:50:36;;;;;;;24.50;15.88;;;;;;;12.07;99.98;98046.03;5099522;27;20119;-94
2021/12/27 12:53:06;;;;;;;25.98;16.55;;;;;;;11.99;100.00;98037.53;5099726;28;20146;-94
2021/12/27 12:55:35;;;;;;;24.50;16.58;;;;;;;12.00;100.00;98028.59;5095209;28;20101;-93
2021/12/27 12:58:02;;;;;;;25.40;16.67;;;;;;;12.23;100.00;98050.66;5099581;28;20050;-92
2021/12/27 13:04:33;;;;;;;25.70;16.60;;;;;;;12.28;100.00;98049.53;5089426;28;20166;-93
2021/12/27 13:06:58;;;;;;;;;;;;;;;12.28;100.00;98056.66;5095192;27;20016;-94
2021/12/27 13:09:45;;;;;;;21.55;15.40;;;;;;;12.10;99.85;98015.69;5100712;28;19970;-93
2021/12/27 13:12:12;;;;;;;25.75;17.30;;;;;;;12.19;100.00;98025.06;5100187;28;20127;-93
2021/12/27 13:14:38;;;;;;;25.88;15.95;;;;;;;12.14;99.25;98014.63;5099981;27;20090;-92
2021/12/27 13:20:25;;;;;;;23.40;15.00;;;;;;;12.04;99.21;98019.53;5098595;28;20032;-93
2021/12/27 13:22:57;;;;;;;25.48;15.98;;;;;;;12.15;100.00;98044.84;5100592;28;20051;-93
2021/12/27 13:25:46;;;;;;;28.60;18.98;;;;;;;12.03;100.00;98024.91;5101583;28;20044;-93
2021/12/27 13:28:16;;;;;;;37.95;19.88;;;;;;;12.08;100.00;98026.44;5094248;28;20509;-95
2021/12/27 13:41:41;;;;;;;26.23;17.00;;;;;;;11.95;100.00;98057.25;5095772;28;20028;-94
2021/12/27 13:44:11;;;;;;;27.27;18.55;;;;;;;11.81;100.00;98041.81;5098542;28;20062;-93
2021/12/27 13:53:30;;;;;;;35.80;21.85;;;;;;;11.54;100.00;98057.19;5084465;28;20028;-94
2021/12/27 13:56:07;;;;;;;34.17;22.27;;;;;;;11.46;100.00;98059.31;5098462;28;20073;-94
2021/12/27 13:58:38;;;;;;;44.90;25.20;;;;;;;11.27;100.00;98044.09;5104467;28;20047;-94
2021/12/27 14:07:50;;;;;;;31.33;21.23;;;;;;;11.17;100.00;98066.72;5100798;28;20385;-94
2021/12/27 14:10:18;;;;;;;30.70;20.50;;;;;;;11.12;100.00;98051.84;5109625;28;20044;-94
2021/12/27 14:12:55;;;;;;;36.57;23.30;;;;;;;11.06;100.00;98042.31;5105103;28;20051;-93
2021/12/27 14:19:31;;;;;;;192.88;143.30;;;;;;;11.06;100.00;98060.94;5093363;28;20023;-92
2021/12/27 14:22:00;;;;;;;78.90;56.45;;;;;;;11.00;100.00;98058.56;5093425;28;20024;-92
2021/12/27 14:24:34;;;;;;;28.17;18.67;;;;;;;11.07;100.00;98070.66;5095930;28;20183;-94
2021/12/27 14:27:02;;;;;;;25.67;17.25;;;;;;;11.03;100.00;98048.63;5095917;28;20044;-93
2021/12/27 14:29:28;;;;;;;24.23;14.85;;;;;;;11.01;100.00;98045.16;5096997;28;20147;-94
2021/12/27 14:35:24;;;;;;;18.77;11.95;;;;;;;11.04;100.00;98057.50;5100600;28;20032;-92
2021/12/27 14:37:51;;;;;;;29.90;20.98;;;;;;;11.06;100.00;98069.81;5104591;28;20542;-92
2021/12/27 14:40:21;;;;;;;22.88;12.43;;;;;;;10.89;100.00;98043.88;5101071;28;20077;-92
2021/12/27 14:42:48;;;;;;;22.65;13.00;;;;;;;10.98;100.00;98055.09;5103002;28;20058;-93
2021/12/27 15:08:52;;;;;;;29.00;12.50;;;;;;;10.73;100.00;98037.44;5093968;28;20078;-91
2021/12/27 15:11:18;;;;;;;18.80;10.02;;;;;;;10.77;100.00;98049.69;5097063;28;20032;-92
2021/12/27 15:13:44;;;;;;;18.48;10.50;;;;;;;10.67;100.00;98048.31;5100212;28;20499;-92
2021/12/27 15:19:31;;;;;;;18.67;11.70;;;;;;;10.63;100.00;98041.38;5098810;28;20060;-91
2021/12/27 15:21:57;;;;;;;20.65;10.90;;;;;;;10.65;100.00;98035.09;5098825;28;20113;-93
2021/12/27 15:24:25;;;;;;;17.77;12.52;;;;;;;10.69;100.00;98042.00;5098069;28;20509;-92
2021/12/27 15:26:51;;;;;;;24.10;14.77;;;;;;;10.57;100.00;98025.69;5101181;28;20044;-93
2021/12/27 15:29:17;;;;;;;21.38;14.90;;;;;;;10.47;100.00;98007.44;5097635;28;20374;-92
2021/12/27 15:35:05;;;;;;;27.20;14.02;;;;;;;10.59;100.00;98023.81;5082673;28;20033;-92
2021/12/27 15:37:31;;;;;;;22.33;15.18;;;;;;;10.67;100.00;98038.56;5093673;28;20675;-94
2021/12/27 15:39:58;;;;;;;26.50;17.20;;;;;;;10.60;100.00;98025.53;5109089;28;20055;-94
2021/12/27 15:42:24;;;;;;;24.65;16.55;;;;;;;10.53;100.00;98013.44;5102582;28;20044;-93
2021/12/27 15:44:50;;;;;;;23.15;12.80;;;;;;;10.53;100.00;98005.44;5101043;28;20047;-93
2021/12/27 16:12:33;;;;;;;24.40;14.43;;;;;;;10.17;100.00;98012.09;5087145;28;20024;-94
2021/12/27 16:14:59;;;;;;;21.83;13.57;;;;;;;10.02;100.00;97996.72;5064202;28;20045;-94
2021/12/27 16:20:47;;;;;;;22.80;13.50;;;;;;;10.01;100.00;98010.91;5051799;28;20037;-94
2021/12/27 16:23:14;;;;;;;22.73;15.65;;;;;;;9.82;100.00;97977.09;5060618;28;20060;-92
2021/12/27 16:25:40;;;;;;;25.13;17.65;;;;;;;9.88;100.00;97999.88;5058633;28;20045;-92
2021/12/27 16:28:09;;;;;;;24.38;16.60;;;;;;;9.86;100.00;97989.31;5059103;28;20507;-92
2021/12/27 16:33:57;;;;;;;29.20;19.00;;;;;;;9.79;100.00;97989.59;5049336;28;20044;-93
2021/12/27 16:36:22;;;;;;;24.45;16.92;;;;;;;9.88;100.00;98005.19;5055797;28;20041;-93
2021/12/27 16:38:48;;;;;;;30.23;20.85;;;;;;;9.67;100.00;97980.28;5054986;28;20083;-92
2021/12/27 16:41:14;;;;;;;44.05;29.02;;;;;;;9.77;100.00;97994.97;5055238;28;20158;-92
2021/12/27 16:43:42;;;;;;;30.02;20.10;;;;;;;9.74;100.00;98003.03;5055718;28;20045;-92
2021/12/27 16:59:36;;;;;;;29.60;18.92;;;;;;;9.66;100.00;97987.38;5058347;28;20047;-93
2021/12/27 17:02:03;;;;;;;32.17;20.23;;;;;;;9.62;100.00;97988.41;5053152;28;20517;-92
2021/12/27 17:04:29;;;;;;;33.17;22.65;;;;;;;9.57;100.00;97987.72;5053926;28;20345;-94
2021/12/27 17:06:55;;;;;;;27.83;18.30;;;;;;;9.67;100.00;98004.16;5060574;28;20052;-94
2021/12/27 17:09:21;;;;;;;26.85;18.85;;;;;;;9.63;100.00;97989.28;5060871;28;20072;-93
2021/12/27 17:11:47;;;;;;;36.13;18.23;;;;;;;9.67;100.00;97998.84;5061666;28;20056;-93
2021/12/27 17:14:13;;;;;;;30.92;18.38;;;;;;;9.64;100.00;97993.66;5086745;28;20046;-93
2021/12/27 17:20:05;;;;;;;22.45;13.88;;;;;;;9.69;100.00;97993.50;5100447;28;20033;-94
2021/12/27 17:22:32;;;;;;;24.58;13.77;;;;;;;9.63;100.00;97987.50;5098508;28;20040;-93
2021/12/27 17:24:59;;;;;;;21.23;12.68;;;;;;;9.69;100.00;97997.00;5098514;28;20361;-93
2021/12/27 17:27:25;;;;;;;29.52;14.93;;;;;;;9.78;100.00;98014.41;5101053;28;20047;-93
2021/12/27 17:29:51;;;;;;;26.27;15.60;;;;;;;9.64;100.00;97983.06;5099273;28;20370;-92
2021/12/27 17:35:40;;;;;;;22.23;12.63;;;;;;;9.79;100.00;98013.50;5094186;28;20378;-92
2021/12/27 17:38:06;;;;;;;27.27;16.42;;;;;;;9.81;100.00;98011.66;5099606;28;20093;-93
2021/12/27 17:40:33;;;;;;;25.75;13.95;;;;;;;9.73;100.00;97990.66;5099856;28;20041;-91
2021/12/27 17:42:59;;;;;;;25.67;16.55;;;;;;;9.83;100.00;98001.84;5098731;28;20145;-94